createdAt,value
2019-02-04T00:01:56.265Z,77.69
2019-02-04T00:04:30.568Z,77.58
2019-02-04T00:07:01.725Z,77.64
2019-02-04T00:09:33.361Z,77.37
2019-02-04T00:12:04.941Z,77.54
2019-02-04T00:14:36.623Z,77.42
2019-02-04T00:17:08.531Z,77.73
2019-02-04T00:19:40.260Z,77.51
2019-02-04T00:22:12.372Z,77.38
2019-02-04T00:24:43.959Z,76.88
2019-02-04T00:27:15.593Z,76.96
2019-02-04T00:29:47.626Z,77.00
2019-02-04T00:32:19.274Z,77.39
2019-02-04T00:34:51.609Z,77.19
2019-02-04T00:37:23.200Z,77.36
2019-02-04T00:39:54.778Z,77.29
2019-02-04T00:42:26.429Z,77.40
2019-02-04T00:44:58.077Z,77.32
2019-02-04T00:47:29.805Z,77.27
2019-02-04T00:50:16.090Z,77.16
2019-02-04T00:52:47.799Z,77.11
2019-02-04T00:55:19.394Z,77.21
2019-02-04T00:57:51.081Z,77.27
2019-02-04T01:00:29.368Z,76.99
2019-02-04T01:03:01.020Z,76.86
2019-02-04T01:05:32.806Z,77.06
2019-02-04T01:08:05.268Z,76.96
2019-02-04T01:10:36.855Z,76.79
2019-02-04T01:13:08.522Z,77.07
2019-02-04T01:15:40.190Z,77.83
2019-02-04T01:18:11.809Z,78.49
2019-02-04T01:20:43.526Z,78.27
2019-02-04T01:23:15.212Z,78.33
2019-02-04T01:25:46.834Z,78.29
2019-02-04T01:28:20.349Z,77.95
2019-02-04T01:30:52.069Z,77.76
2019-02-04T01:33:23.705Z,77.62
2019-02-04T01:35:55.359Z,77.66
2019-02-04T01:38:27.033Z,77.47
2019-02-04T01:40:58.666Z,77.35
2019-02-04T01:43:30.721Z,76.53
2019-02-04T01:46:02.492Z,76.35
2019-02-04T01:48:34.260Z,76.83
2019-02-04T01:51:06.070Z,76.20
2019-02-04T01:53:37.669Z,76.28
2019-02-04T01:56:09.541Z,76.63
2019-02-04T01:58:41.113Z,76.47
2019-02-04T02:01:12.701Z,76.67
2019-02-04T02:03:45.346Z,76.38
2019-02-04T02:06:16.926Z,76.17
2019-02-04T02:08:48.616Z,76.40
2019-02-04T02:11:20.244Z,76.77
2019-02-04T02:13:51.821Z,77.19
2019-02-04T02:16:23.411Z,76.76
2019-02-04T02:18:55.738Z,76.56
2019-02-04T02:21:27.432Z,76.06
2019-02-04T02:23:59.018Z,75.80
2019-02-04T02:26:30.704Z,75.74
2019-02-04T02:29:02.353Z,75.48
2019-02-04T02:31:34.375Z,74.88
2019-02-04T02:34:05.972Z,75.27
2019-02-04T02:36:37.549Z,74.97
2019-02-04T02:39:09.376Z,74.46
2019-02-04T02:41:40.967Z,74.84
2019-02-04T02:44:12.939Z,75.20
2019-02-04T02:46:44.523Z,74.58
2019-02-04T02:49:16.565Z,74.73
2019-02-04T02:51:48.237Z,74.71
2019-02-04T02:54:19.817Z,74.55
2019-02-04T02:56:51.846Z,74.73
2019-02-04T02:59:23.539Z,74.42
2019-02-04T03:01:55.164Z,74.19
2019-02-04T03:04:26.849Z,74.25
2019-02-04T03:06:58.468Z,73.68
2019-02-04T03:09:30.076Z,73.50
2019-02-04T03:12:01.694Z,73.82
2019-02-04T03:14:33.351Z,73.37
2019-02-04T03:17:05.041Z,73.73
2019-02-04T03:19:37.244Z,73.64
2019-02-04T03:22:08.894Z,73.73
2019-02-04T03:24:40.542Z,73.03
2019-02-04T03:27:12.170Z,72.83
2019-02-04T03:29:43.937Z,72.86
2019-02-04T03:32:15.554Z,72.54
2019-02-04T03:34:47.249Z,72.53
2019-02-04T03:37:18.829Z,72.15
2019-02-04T03:39:51.492Z,71.83
2019-02-04T03:42:23.518Z,71.20
2019-02-04T03:44:55.475Z,70.60
2019-02-04T03:47:28.133Z,70.92
2019-02-04T03:50:01.305Z,70.57
2019-02-04T03:52:34.103Z,70.58
2019-02-04T03:55:08.895Z,70.44
2019-02-04T03:57:41.655Z,70.55
2019-02-04T04:00:34.666Z,71.32
2019-02-04T04:03:06.258Z,71.42
2019-02-04T04:05:37.993Z,72.26
2019-02-04T04:08:10.114Z,72.85
2019-02-04T04:10:41.736Z,72.83
2019-02-04T04:13:13.453Z,73.61
2019-02-04T04:15:45.465Z,73.23
2019-02-04T04:18:17.048Z,73.51
2019-02-04T04:20:48.609Z,73.59
2019-02-04T04:23:20.228Z,73.05
2019-02-04T04:25:52.012Z,72.52
2019-02-04T04:28:24.091Z,72.73
2019-02-04T04:30:55.808Z,72.33
2019-02-04T04:33:27.439Z,71.61
2019-02-04T04:35:59.149Z,71.62
2019-02-04T04:38:31.243Z,71.22
2019-02-04T04:41:03.107Z,71.03
2019-02-04T04:43:34.814Z,71.02
2019-02-04T04:46:06.408Z,71.52
2019-02-04T04:48:38.021Z,72.03
2019-02-04T04:51:09.610Z,71.87
2019-02-04T04:53:41.263Z,72.00
2019-02-04T04:56:12.953Z,72.38
2019-02-04T04:58:44.628Z,72.26
2019-02-04T05:01:16.347Z,72.40
2019-02-04T05:03:48.203Z,71.70
2019-02-04T05:06:19.849Z,71.38
2019-02-04T05:08:51.550Z,71.60
2019-02-04T05:11:23.210Z,70.57
2019-02-04T05:13:54.863Z,70.98
2019-02-04T05:16:26.444Z,70.86
2019-02-04T05:18:58.030Z,71.30
2019-02-04T05:21:29.710Z,71.23
2019-02-04T05:24:01.756Z,71.24
2019-02-04T05:26:33.487Z,70.97
2019-02-04T05:29:05.405Z,71.07
2019-02-04T05:31:37.139Z,70.65
2019-02-04T05:34:08.699Z,71.09
2019-02-04T05:36:40.347Z,70.65
2019-02-04T05:39:12.445Z,69.89
2019-02-04T05:41:44.351Z,70.07
2019-02-04T05:44:15.941Z,70.74
2019-02-04T05:46:47.589Z,70.14
2019-02-04T05:49:19.168Z,69.86
2019-02-04T05:51:50.751Z,70.00
2019-02-04T05:54:22.779Z,69.81
2019-02-04T05:56:54.366Z,69.32
2019-02-04T05:59:26.023Z,69.83
2019-02-04T06:01:57.695Z,67.46
2019-02-04T06:04:29.342Z,67.40
2019-02-04T06:07:00.984Z,67.76
2019-02-04T06:09:32.805Z,68.43
2019-02-04T06:12:04.401Z,69.47
2019-02-04T06:14:36.506Z,69.82
2019-02-04T06:17:09.851Z,70.09
2019-02-04T06:19:41.515Z,70.54
2019-02-04T06:22:13.183Z,71.42
2019-02-04T06:24:45.416Z,72.88
2019-02-04T06:27:18.984Z,74.30
2019-02-04T06:29:50.967Z,75.34
2019-02-04T06:32:22.619Z,75.67
2019-02-04T06:34:54.231Z,75.64
2019-02-04T06:37:25.990Z,75.92
2019-02-04T06:39:58.027Z,75.67
2019-02-04T06:42:29.694Z,75.86
2019-02-04T06:45:01.263Z,75.10
2019-02-04T06:47:32.929Z,75.26
2019-02-04T06:50:09.514Z,75.21
2019-02-04T06:52:41.532Z,75.76
2019-02-04T06:55:24.193Z,76.04
2019-02-04T06:57:56.908Z,75.67
2019-02-04T07:02:22.558Z,75.21
2019-02-04T07:04:54.156Z,74.81
2019-02-04T07:07:26.261Z,75.20
2019-02-04T07:09:58.206Z,74.88
2019-02-04T07:12:29.784Z,74.86
2019-02-04T07:15:01.359Z,74.60
2019-02-04T07:17:34.028Z,74.88
2019-02-04T07:20:13.717Z,74.49
2019-02-04T07:22:45.306Z,74.75
2019-02-04T07:25:17.684Z,74.22
2019-02-04T07:27:49.357Z,74.00
2019-02-04T07:30:27.331Z,73.64
2019-02-04T07:32:59.394Z,73.77
2019-02-04T07:35:31.142Z,74.08
2019-02-04T07:38:02.891Z,74.14
2019-02-04T07:40:35.211Z,73.85
2019-02-04T07:43:06.865Z,74.12
2019-02-04T07:45:38.478Z,74.19
2019-02-04T07:48:10.177Z,73.95
2019-02-04T07:50:41.850Z,73.83
2019-02-04T07:53:13.494Z,73.41
2019-02-04T07:55:45.155Z,73.83
2019-02-04T07:58:16.824Z,73.95
2019-02-04T08:00:48.398Z,73.46
2019-02-04T08:03:20.065Z,72.89
2019-02-04T08:05:51.717Z,71.88
2019-02-04T08:08:23.435Z,71.78
2019-02-04T08:10:55.042Z,71.69
2019-02-04T08:13:26.583Z,71.90
2019-02-04T08:15:58.260Z,71.86
2019-02-04T08:18:31.082Z,71.09
2019-02-04T08:21:02.828Z,70.49
2019-02-04T08:23:35.560Z,70.05
2019-02-04T08:26:07.544Z,69.34
2019-02-04T08:28:39.150Z,69.13
2019-02-04T08:31:10.817Z,68.83
2019-02-04T08:33:42.972Z,67.90
2019-02-04T08:36:14.815Z,67.09
2019-02-04T08:38:46.599Z,67.58
2019-02-04T08:41:18.215Z,66.87
2019-02-04T08:43:50.074Z,66.44
2019-02-04T08:46:21.869Z,65.46
2019-02-04T08:48:53.668Z,65.75
2019-02-04T08:51:25.310Z,65.53
2019-02-04T08:53:56.975Z,65.30
2019-02-04T08:56:28.668Z,64.90
2019-02-04T08:59:00.326Z,64.18
2019-02-04T09:01:31.932Z,64.31
2019-02-04T09:06:32.906Z,64.97
2019-02-04T09:09:07.515Z,65.19
2019-02-04T09:11:39.309Z,63.89
2019-02-04T09:14:10.985Z,64.36
2019-02-04T09:16:42.754Z,64.42
2019-02-04T09:19:14.467Z,64.09
2019-02-04T09:21:46.220Z,64.33
2019-02-04T09:24:17.793Z,62.77
2019-02-04T09:26:49.409Z,64.15
2019-02-04T09:29:21.109Z,64.27
2019-02-04T09:31:52.706Z,64.82
2019-02-04T09:34:24.276Z,64.26
2019-02-04T09:36:55.971Z,65.25
2019-02-04T09:39:27.790Z,64.82
2019-02-04T09:41:59.441Z,64.11
2019-02-04T09:44:31.051Z,64.33
2019-02-04T09:47:02.619Z,64.10
2019-02-04T09:49:34.282Z,63.75
2019-02-04T09:52:06.089Z,64.01
2019-02-04T09:54:37.912Z,64.10
2019-02-04T09:57:09.589Z,63.25
2019-02-04T09:59:41.268Z,62.75
2019-02-04T10:02:12.893Z,64.11
2019-02-04T10:04:44.651Z,63.86
2019-02-04T10:07:16.318Z,64.23
2019-02-04T10:09:47.881Z,63.48
2019-02-04T10:12:19.585Z,63.86
2019-02-04T10:14:51.286Z,63.37
2019-02-04T10:17:22.957Z,64.04
2019-02-04T10:19:54.714Z,64.47
2019-02-04T10:22:26.407Z,65.28
2019-02-04T10:24:58.048Z,65.67
2019-02-04T10:27:30.021Z,64.36
2019-02-04T10:30:01.707Z,64.44
2019-02-04T10:32:33.473Z,63.77
2019-02-04T10:35:16.616Z,64.30
2019-02-04T10:37:41.324Z,63.38
2019-02-04T10:40:20.255Z,62.30
2019-02-04T10:42:51.847Z,61.64
2019-02-04T10:45:23.629Z,62.06
2019-02-04T10:47:55.307Z,60.79
2019-02-04T10:50:45.130Z,60.11
2019-02-04T10:53:09.441Z,60.66
2019-02-04T10:55:41.133Z,60.52
2019-02-04T10:58:14.844Z,60.97
2019-02-04T11:00:46.615Z,61.07
2019-02-04T11:03:20.052Z,60.84
2019-02-04T11:05:51.696Z,59.75
2019-02-04T11:08:23.466Z,60.02
2019-02-04T11:10:55.251Z,60.20
2019-02-04T11:13:27.813Z,59.80
2019-02-04T11:15:59.533Z,60.22
2019-02-04T11:18:31.151Z,60.17
2019-02-04T11:21:02.936Z,59.87
2019-02-04T11:23:34.582Z,59.20
2019-02-04T11:26:06.423Z,60.21
2019-02-04T11:28:38.495Z,61.15
2019-02-04T11:31:10.250Z,61.09
2019-02-04T11:33:41.975Z,61.24
2019-02-04T11:36:13.720Z,60.44
2019-02-04T11:38:45.376Z,61.18
2019-02-04T11:41:17.305Z,61.78
2019-02-04T11:43:49.431Z,62.46
2019-02-04T11:46:21.092Z,61.30
2019-02-04T11:48:52.770Z,61.13
2019-02-04T11:51:24.447Z,60.45
2019-02-04T11:53:56.024Z,60.05
2019-02-04T11:56:27.614Z,59.94
2019-02-04T11:58:59.783Z,59.81
2019-02-04T12:01:31.418Z,59.56
2019-02-04T12:04:02.980Z,59.78
2019-02-04T12:06:34.582Z,60.10
2019-02-04T12:09:08.346Z,59.58
2019-02-04T12:11:39.985Z,58.75
2019-02-04T12:14:12.120Z,58.99
2019-02-04T12:16:45.361Z,59.53
2019-02-04T12:19:17.017Z,60.07
2019-02-04T12:21:48.691Z,59.21
2019-02-04T12:24:20.352Z,59.35
2019-02-04T12:26:52.619Z,59.65
2019-02-04T12:29:24.861Z,59.78
2019-02-04T12:31:56.518Z,59.15
2019-02-04T12:34:28.092Z,58.89
2019-02-04T12:36:59.833Z,59.19
2019-02-04T12:39:31.484Z,59.96
2019-02-04T12:42:03.531Z,60.23
2019-02-04T12:44:36.741Z,59.67
2019-02-04T12:47:09.084Z,58.96
2019-02-04T12:49:40.671Z,58.46
2019-02-04T12:52:12.558Z,58.56
2019-02-04T12:54:44.224Z,58.16
2019-02-04T12:57:15.997Z,58.54
2019-02-04T12:59:48.078Z,58.99
2019-02-04T13:02:19.779Z,58.65
2019-02-04T13:04:51.500Z,58.58
2019-02-04T13:07:23.088Z,59.53
2019-02-04T13:09:54.694Z,60.16
2019-02-04T13:12:26.449Z,61.25
2019-02-04T13:14:58.931Z,61.96
2019-02-04T13:17:30.600Z,61.10
2019-02-04T13:20:02.176Z,60.22
2019-02-04T13:22:33.939Z,60.50
2019-02-04T13:25:10.357Z,60.49
2019-02-04T13:27:42.001Z,62.12
2019-02-04T13:30:18.675Z,61.52
2019-02-04T13:32:50.398Z,61.82
2019-02-04T13:35:22.136Z,60.56
2019-02-04T13:37:54.222Z,59.81
2019-02-04T13:40:32.069Z,59.78
2019-02-04T13:43:03.665Z,60.00
2019-02-04T13:45:35.719Z,60.78
2019-02-04T13:48:08.588Z,61.47
2019-02-04T13:50:40.536Z,61.80
2019-02-04T13:53:12.197Z,61.79
2019-02-04T13:55:43.825Z,61.96
2019-02-04T13:58:15.414Z,61.01
2019-02-04T14:00:47.456Z,61.27
2019-02-04T14:03:19.227Z,61.37
2019-02-04T14:05:50.814Z,61.74
2019-02-04T14:08:22.407Z,62.15
2019-02-04T14:10:54.188Z,62.80
2019-02-04T14:13:26.231Z,62.81
2019-02-04T14:15:58.060Z,62.41
2019-02-04T14:18:29.658Z,63.29
2019-02-04T14:21:01.295Z,64.35
2019-02-04T14:23:33.969Z,64.65
2019-02-04T14:26:06.729Z,65.05
2019-02-04T14:28:38.349Z,65.06
2019-02-04T14:31:10.065Z,65.58
2019-02-04T14:33:41.770Z,65.10
2019-02-04T14:36:13.489Z,65.25
2019-02-04T14:38:45.085Z,64.21
2019-02-04T14:41:16.875Z,63.38
2019-02-04T14:43:48.655Z,64.15
2019-02-04T14:46:28.073Z,63.49
2019-02-04T14:49:22.767Z,63.61
2019-02-04T14:52:24.083Z,63.30
2019-02-04T14:55:19.049Z,63.57
2019-02-04T14:58:18.410Z,63.28
2019-02-04T15:01:20.049Z,64.76
2019-02-04T15:04:19.526Z,64.75
2019-02-04T15:07:16.531Z,65.12
2019-02-04T15:10:07.784Z,65.70
2019-02-04T15:13:12.513Z,65.36
2019-02-04T15:16:00.729Z,64.93
2019-02-04T15:19:10.598Z,63.43
2019-02-04T15:22:09.618Z,62.81
2019-02-04T15:25:17.881Z,63.81
2019-02-04T15:28:09.437Z,64.61
2019-02-04T15:30:45.968Z,64.13
2019-02-04T15:33:34.629Z,65.17
2019-02-04T15:36:41.855Z,65.35
2019-02-04T15:39:27.555Z,65.55
2019-02-04T15:42:12.752Z,65.22
2019-02-04T15:44:50.356Z,65.09
2019-02-04T15:47:35.937Z,66.58
2019-02-04T15:50:45.729Z,65.87
2019-02-04T15:53:17.351Z,65.93
2019-02-04T15:55:49.016Z,65.32
2019-02-04T15:58:20.882Z,65.58
2019-02-04T16:00:52.794Z,65.15
2019-02-04T16:03:24.395Z,65.28
2019-02-04T16:27:13.316Z,63.66
2019-02-04T16:29:45.574Z,64.53
2019-02-04T16:32:18.293Z,64.26
2019-02-04T16:34:50.017Z,64.04
2019-02-04T16:37:21.674Z,64.41
2019-02-04T16:39:53.544Z,64.35
2019-02-04T16:42:25.178Z,64.55
2019-02-04T16:44:56.830Z,65.44
2019-02-04T16:47:28.420Z,65.42
2019-02-04T16:50:00.186Z,65.22
2019-02-04T16:52:31.986Z,65.93
2019-02-04T16:55:06.211Z,65.58
2019-02-04T16:57:37.779Z,65.48
2019-02-04T17:00:14.277Z,64.97
2019-02-04T17:02:45.953Z,64.48
2019-02-04T17:05:18.302Z,64.78
2019-02-04T17:07:50.104Z,65.29
2019-02-04T17:10:25.061Z,65.53
2019-02-04T17:12:56.643Z,65.67
2019-02-04T17:15:28.656Z,66.22
2019-02-04T17:18:00.317Z,66.02
2019-02-04T17:20:32.582Z,65.99
2019-02-04T17:23:04.191Z,65.53
2019-02-04T17:25:36.095Z,65.24
2019-02-04T17:28:08.975Z,64.69
2019-02-04T17:30:40.736Z,65.15
2019-02-04T17:33:12.436Z,65.57
2019-02-04T17:35:44.082Z,65.74
2019-02-04T17:38:15.842Z,66.23
2019-02-04T17:40:48.616Z,66.33
2019-02-04T17:43:20.321Z,66.48
2019-02-04T17:45:53.087Z,65.87
2019-02-04T17:48:24.840Z,65.82
2019-02-04T17:50:56.392Z,65.82
2019-02-04T17:53:34.405Z,65.96
2019-02-04T17:56:03.352Z,65.72
2019-02-04T17:58:34.945Z,65.79
2019-02-04T18:01:07.479Z,65.36
2019-02-04T18:03:39.981Z,65.81
2019-02-04T18:06:11.599Z,65.90
2019-02-04T18:08:43.615Z,65.99
2019-02-04T18:11:15.280Z,65.70
2019-02-04T18:13:46.914Z,65.88
2019-02-04T18:16:18.779Z,65.78
2019-02-04T18:18:50.513Z,66.02
2019-02-04T18:21:22.814Z,65.86
2019-02-04T18:23:54.488Z,65.72
2019-02-04T18:26:27.804Z,65.73
2019-02-04T18:29:00.277Z,65.79
2019-02-04T18:31:34.076Z,65.42
2019-02-04T18:34:05.321Z,65.18
2019-02-04T18:36:36.891Z,65.39
2019-02-04T18:39:09.246Z,66.05
2019-02-04T18:41:40.842Z,66.40
2019-02-04T18:44:12.443Z,65.75
2019-02-04T18:46:44.346Z,65.93
2019-02-04T18:49:15.923Z,65.71
2019-02-04T18:51:48.548Z,65.36
2019-02-04T18:54:20.131Z,65.30
2019-02-04T18:56:51.722Z,64.92
2019-02-04T18:59:23.371Z,64.86
2019-02-04T19:01:55.143Z,64.78
2019-02-04T19:04:27.103Z,64.90
2019-02-04T19:06:58.687Z,65.39
2019-02-04T19:09:30.289Z,65.62
2019-02-04T19:12:01.927Z,65.08
2019-02-04T19:14:33.915Z,64.88
2019-02-04T19:17:05.502Z,64.76
2019-02-04T19:19:37.072Z,64.82
2019-02-04T19:22:08.738Z,64.69
2019-02-04T19:24:40.396Z,64.66
2019-02-04T19:27:12.366Z,64.57
2019-02-04T19:29:43.940Z,64.45
2019-02-04T19:32:15.523Z,64.91
2019-02-04T19:34:47.113Z,65.32
2019-02-04T19:37:18.742Z,65.58
2019-02-04T19:39:50.696Z,66.12
2019-02-04T19:42:22.403Z,65.73
2019-02-04T19:44:53.988Z,65.74
2019-02-04T19:47:25.571Z,65.09
2019-02-04T19:49:57.149Z,65.49
2019-02-04T19:52:29.129Z,65.54
2019-02-04T19:55:00.700Z,65.22
2019-02-04T19:57:32.435Z,65.23
2019-02-04T20:00:06.929Z,64.58
2019-02-04T20:02:41.028Z,64.48
2019-02-04T20:05:16.741Z,64.21
2019-02-04T20:07:48.319Z,64.13
2019-02-04T20:10:22.420Z,64.36
2019-02-04T20:12:54.066Z,65.68
2019-02-04T20:15:31.429Z,65.33
2019-02-04T20:18:03.185Z,65.27
2019-02-04T20:20:34.770Z,65.51
2019-02-04T20:23:06.415Z,65.53
2019-02-04T20:25:38.168Z,65.04
2019-02-04T20:28:11.350Z,65.78
2019-02-04T20:30:46.517Z,65.17
2019-02-04T20:33:18.244Z,64.73
2019-02-04T20:35:50.937Z,64.67
2019-02-04T20:38:22.587Z,64.46
2019-02-04T20:40:54.159Z,65.12
2019-02-04T20:43:25.820Z,64.67
2019-02-04T20:45:57.577Z,64.33
2019-02-04T20:48:29.131Z,64.14
2019-02-04T20:51:00.778Z,64.13
2019-02-04T20:53:32.559Z,64.21
2019-02-04T20:56:04.454Z,64.79
2019-02-04T20:58:36.098Z,64.71
2019-02-04T21:01:08.740Z,64.87
2019-02-04T21:03:40.317Z,64.58
2019-02-04T21:06:11.892Z,65.18
2019-02-04T21:08:43.447Z,64.96
2019-02-04T21:11:15.629Z,65.17
2019-02-04T21:13:47.370Z,64.33
2019-02-04T21:16:19.048Z,64.45
2019-02-04T21:18:50.892Z,64.58
2019-02-04T21:21:23.897Z,64.41
2019-02-04T21:23:55.846Z,64.60
2019-02-04T21:26:27.527Z,64.88
2019-02-04T21:28:59.088Z,65.21
2019-02-04T21:31:30.652Z,65.40
2019-02-04T21:34:02.692Z,66.00
2019-02-04T21:36:34.949Z,65.65
2019-02-04T21:39:07.799Z,65.61
2019-02-04T21:41:39.992Z,66.05
2019-02-04T21:44:11.551Z,66.33
2019-02-04T21:46:43.118Z,66.38
2019-02-04T21:49:15.776Z,66.82
2019-02-04T21:51:47.361Z,66.93
2019-02-04T21:54:19.204Z,66.99
2019-02-04T21:56:50.845Z,67.11
2019-02-04T21:59:22.495Z,66.89
2019-02-04T22:01:54.159Z,66.77
2019-02-04T22:04:25.806Z,66.88
2019-02-04T22:06:57.875Z,66.74
2019-02-04T22:09:29.589Z,66.82
2019-02-04T22:12:01.318Z,66.94
2019-02-04T22:14:34.087Z,67.06
2019-02-04T22:17:05.710Z,67.28
2019-02-04T22:19:37.283Z,67.69
2019-02-04T22:22:08.884Z,68.61
2019-02-04T22:24:40.505Z,68.30
2019-02-04T22:27:12.091Z,67.89
2019-02-04T22:29:43.685Z,67.65
2019-02-04T22:32:15.239Z,67.52
2019-02-04T22:34:47.003Z,67.92
2019-02-04T22:37:18.583Z,68.21
2019-02-04T22:39:50.169Z,69.24
2019-02-04T22:42:21.742Z,68.47
2019-02-04T22:44:53.322Z,67.97
2019-02-04T22:47:24.964Z,67.85
2019-02-04T22:49:56.524Z,67.74
2019-02-04T22:52:29.173Z,67.36
2019-02-04T22:55:00.785Z,67.13
2019-02-04T22:57:32.435Z,67.11
2019-02-04T23:00:06.375Z,67.49
2019-02-04T23:02:38.037Z,67.53
2019-02-04T23:05:09.616Z,67.59
2019-02-04T23:07:41.241Z,68.03
2019-02-04T23:10:13.259Z,68.05
2019-02-04T23:12:46.403Z,67.95
2019-02-04T23:15:18.090Z,68.32
2019-02-04T23:17:49.808Z,68.31
2019-02-04T23:20:21.463Z,67.88
2019-02-04T23:22:53.356Z,67.79
2019-02-04T23:25:24.995Z,68.51
2019-02-04T23:27:56.627Z,68.24
2019-02-04T23:30:28.259Z,67.95
2019-02-04T23:32:59.857Z,67.63
2019-02-04T23:35:31.438Z,67.81
2019-02-04T23:38:04.583Z,67.75
2019-02-04T23:40:36.149Z,67.64
2019-02-04T23:43:07.766Z,67.66
2019-02-04T23:45:39.322Z,68.08
2019-02-04T23:48:11.051Z,67.82
2019-02-04T23:50:42.641Z,67.54
2019-02-04T23:53:14.219Z,67.39
2019-02-04T23:55:54.282Z,67.23
2019-02-04T23:58:19.175Z,67.44
